sensor_id;sensor_type;location;lat;lon;timestamp;temperature;humidity
12578;DHT22;6354;51.026;8.968;2022-09-09T00:02:02;14.30;99.90
12578;DHT22;6354;51.026;8.968;2022-09-09T00:04:32;14.30;99.90
12578;DHT22;6354;51.026;8.968;2022-09-09T00:07:05;14.30;99.90
12578;DHT22;6354;51.026;8.968;2022-09-09T00:09:40;14.20;99.90
12578;DHT22;6354;51.026;8.968;2022-09-09T00:12:20;14.20;99.90
12578;DHT22;6354;51.026;8.968;2022-09-09T00:14:53;14.30;99.90
12578;DHT22;6354;51.026;8.968;2022-09-09T00:17:32;14.20;99.90
12578;DHT22;6354;51.026;8.968;2022-09-09T00:20:11;14.30;99.90
12578;DHT22;6354;51.026;8.968;2022-09-09T00:22:47;14.30;99.90
12578;DHT22;6354;51.026;8.968;2022-09-09T00:25:23;14.40;99.90
12578;DHT22;6354;51.026;8.968;2022-09-09T00:27:51;14.40;99.90
12578;DHT22;6354;51.026;8.968;2022-09-09T00:30:22;14.50;99.90
12578;DHT22;6354;51.026;8.968;2022-09-09T00:32:53;14.50;99.90
12578;DHT22;6354;51.026;8.968;2022-09-09T00:35:27;14.50;99.90
12578;DHT22;6354;51.026;8.968;2022-09-09T00:38:03;14.50;99.90
12578;DHT22;6354;51.026;8.968;2022-09-09T00:40:35;14.50;99.90
12578;DHT22;6354;51.026;8.968;2022-09-09T00:43:21;14.40;99.90
12578;DHT22;6354;51.026;8.968;2022-09-09T00:46:06;14.40;99.90
12578;DHT22;6354;51.026;8.968;2022-09-09T00:48:45;14.40;99.90
12578;DHT22;6354;51.026;8.968;2022-09-09T00:51:20;14.30;99.90
12578;DHT22;6354;51.026;8.968;2022-09-09T00:54:26;14.20;99.90
12578;DHT22;6354;51.026;8.968;2022-09-09T00:57:07;14.20;99.90
12578;DHT22;6354;51.026;8.968;2022-09-09T00:59:47;14.10;99.90
12578;DHT22;6354;51.026;8.968;2022-09-09T01:02:25;14.10;99.90
12578;DHT22;6354;51.026;8.968;2022-09-09T01:04:59;14.00;99.90
12578;DHT22;6354;51.026;8.968;2022-09-09T01:07:29;14.00;99.90
12578;DHT22;6354;51.026;8.968;2022-09-09T01:10:01;14.00;99.90
12578;DHT22;6354;51.026;8.968;2022-09-09T01:12:38;14.00;99.90
12578;DHT22;6354;51.026;8.968;2022-09-09T01:15:12;14.00;99.90
12578;DHT22;6354;51.026;8.968;2022-09-09T01:17:51;14.00;99.90
12578;DHT22;6354;51.026;8.968;2022-09-09T01:20:23;14.00;99.90
12578;DHT22;6354;51.026;8.968;2022-09-09T01:23:13;14.00;99.90
12578;DHT22;6354;51.026;8.968;2022-09-09T01:26:13;14.00;99.90
12578;DHT22;6354;51.026;8.968;2022-09-09T01:28:45;13.90;99.90
12578;DHT22;6354;51.026;8.968;2022-09-09T01:31:17;13.90;99.90
12578;DHT22;6354;51.026;8.968;2022-09-09T01:33:46;13.80;99.90
12578;DHT22;6354;51.026;8.968;2022-09-09T01:36:23;13.90;99.90
12578;DHT22;6354;51.026;8.968;2022-09-09T01:38:52;13.90;99.90
12578;DHT22;6354;51.026;8.968;2022-09-09T01:41:22;13.90;99.90
12578;DHT22;6354;51.026;8.968;2022-09-09T01:43:50;13.90;99.90
12578;DHT22;6354;51.026;8.968;2022-09-09T01:46:21;13.90;99.90
12578;DHT22;6354;51.026;8.968;2022-09-09T01:48:51;13.90;99.90
12578;DHT22;6354;51.026;8.968;2022-09-09T01:51:20;13.90;99.90
12578;DHT22;6354;51.026;8.968;2022-09-09T01:53:48;13.90;99.90
12578;DHT22;6354;51.026;8.968;2022-09-09T01:56:29;13.90;99.90
12578;DHT22;6354;51.026;8.968;2022-09-09T01:59:07;13.90;99.90
12578;DHT22;6354;51.026;8.968;2022-09-09T02:01:50;14.00;99.90
12578;DHT22;6354;51.026;8.968;2022-09-09T02:04:36;14.00;99.90
12578;DHT22;6354;51.026;8.968;2022-09-09T02:07:11;14.10;99.90
12578;DHT22;6354;51.026;8.968;2022-09-09T02:09:44;14.20;99.90
12578;DHT22;6354;51.026;8.968;2022-09-09T02:12:18;14.20;99.90
12578;DHT22;6354;51.026;8.968;2022-09-09T02:14:52;14.30;99.90
12578;DHT22;6354;51.026;8.968;2022-09-09T02:17:25;14.30;99.90
12578;DHT22;6354;51.026;8.968;2022-09-09T02:19:59;14.30;99.90
12578;DHT22;6354;51.026;8.968;2022-09-09T02:22:31;14.40;99.90
12578;DHT22;6354;51.026;8.968;2022-09-09T02:25:00;14.30;99.90
12578;DHT22;6354;51.026;8.968;2022-09-09T02:27:31;14.30;99.90
12578;DHT22;6354;51.026;8.968;2022-09-09T02:30:00;14.30;99.90
12578;DHT22;6354;51.026;8.968;2022-09-09T02:32:30;14.30;99.90
12578;DHT22;6354;51.026;8.968;2022-09-09T02:35:03;14.40;99.90
12578;DHT22;6354;51.026;8.968;2022-09-09T02:37:36;14.50;99.90
12578;DHT22;6354;51.026;8.968;2022-09-09T02:40:07;14.50;99.90
12578;DHT22;6354;51.026;8.968;2022-09-09T02:42:40;14.60;99.90
12578;DHT22;6354;51.026;8.968;2022-09-09T02:45:10;14.60;99.90
12578;DHT22;6354;51.026;8.968;2022-09-09T02:47:44;14.70;99.90
12578;DHT22;6354;51.026;8.968;2022-09-09T02:50:17;14.70;99.90
12578;DHT22;6354;51.026;8.968;2022-09-09T02:52:59;14.70;99.90
12578;DHT22;6354;51.026;8.968;2022-09-09T02:55:37;14.70;99.90
12578;DHT22;6354;51.026;8.968;2022-09-09T02:58:09;14.70;99.90
12578;DHT22;6354;51.026;8.968;2022-09-09T03:00:39;14.60;99.90
12578;DHT22;6354;51.026;8.968;2022-09-09T03:03:08;14.60;99.90
12578;DHT22;6354;51.026;8.968;2022-09-09T03:05:37;14.50;99.90
12578;DHT22;6354;51.026;8.968;2022-09-09T03:08:05;14.50;99.90
12578;DHT22;6354;51.026;8.968;2022-09-09T03:10:34;14.50;99.90
12578;DHT22;6354;51.026;8.968;2022-09-09T03:13:03;14.40;99.90
12578;DHT22;6354;51.026;8.968;2022-09-09T03:15:34;14.40;99.90
12578;DHT22;6354;51.026;8.968;2022-09-09T03:18:02;14.30;99.90
12578;DHT22;6354;51.026;8.968;2022-09-09T03:20:30;14.30;99.90
12578;DHT22;6354;51.026;8.968;2022-09-09T03:23:00;14.20;99.90
12578;DHT22;6354;51.026;8.968;2022-09-09T03:25:28;14.20;99.90
12578;DHT22;6354;51.026;8.968;2022-09-09T03:27:57;14.10;99.90
12578;DHT22;6354;51.026;8.968;2022-09-09T03:30:27;14.10;99.90
12578;DHT22;6354;51.026;8.968;2022-09-09T03:32:56;14.00;99.90
12578;DHT22;6354;51.026;8.968;2022-09-09T03:35:24;14.00;99.90
12578;DHT22;6354;51.026;8.968;2022-09-09T03:37:52;13.90;99.90
12578;DHT22;6354;51.026;8.968;2022-09-09T03:40:22;13.90;99.90
12578;DHT22;6354;51.026;8.968;2022-09-09T03:42:50;13.90;99.90
12578;DHT22;6354;51.026;8.968;2022-09-09T03:45:18;13.80;99.90
12578;DHT22;6354;51.026;8.968;2022-09-09T03:47:46;13.90;99.90
12578;DHT22;6354;51.026;8.968;2022-09-09T03:50:15;13.80;99.90
12578;DHT22;6354;51.026;8.968;2022-09-09T03:52:45;13.80;99.90
12578;DHT22;6354;51.026;8.968;2022-09-09T03:55:13;13.80;99.90
12578;DHT22;6354;51.026;8.968;2022-09-09T03:57:41;13.70;99.90
12578;DHT22;6354;51.026;8.968;2022-09-09T04:00:10;13.80;99.90
12578;DHT22;6354;51.026;8.968;2022-09-09T04:02:38;13.80;99.90
12578;DHT22;6354;51.026;8.968;2022-09-09T04:05:07;13.80;99.90
12578;DHT22;6354;51.026;8.968;2022-09-09T04:07:37;13.80;99.90
12578;DHT22;6354;51.026;8.968;2022-09-09T04:10:06;13.90;99.90
12578;DHT22;6354;51.026;8.968;2022-09-09T04:12:35;13.90;99.90
12578;DHT22;6354;51.026;8.968;2022-09-09T04:15:03;13.90;99.90
12578;DHT22;6354;51.026;8.968;2022-09-09T04:17:33;13.90;99.90
12578;DHT22;6354;51.026;8.968;2022-09-09T04:20:03;13.90;99.90
12578;DHT22;6354;51.026;8.968;2022-09-09T04:22:31;13.90;99.90
12578;DHT22;6354;51.026;8.968;2022-09-09T04:25:02;14.00;99.90
12578;DHT22;6354;51.026;8.968;2022-09-09T04:27:30;13.80;99.90
12578;DHT22;6354;51.026;8.968;2022-09-09T04:29:58;13.80;99.90
12578;DHT22;6354;51.026;8.968;2022-09-09T04:32:26;13.70;99.90
12578;DHT22;6354;51.026;8.968;2022-09-09T04:34:54;13.70;99.90
12578;DHT22;6354;51.026;8.968;2022-09-09T04:37:22;13.70;99.90
12578;DHT22;6354;51.026;8.968;2022-09-09T04:39:51;13.60;99.90
12578;DHT22;6354;51.026;8.968;2022-09-09T04:42:21;13.60;99.90
12578;DHT22;6354;51.026;8.968;2022-09-09T04:44:49;13.60;99.90
12578;DHT22;6354;51.026;8.968;2022-09-09T04:47:17;13.60;99.90
12578;DHT22;6354;51.026;8.968;2022-09-09T04:49:45;13.70;99.90
12578;DHT22;6354;51.026;8.968;2022-09-09T04:52:14;13.60;99.90
12578;DHT22;6354;51.026;8.968;2022-09-09T04:54:43;13.60;99.90
12578;DHT22;6354;51.026;8.968;2022-09-09T04:57:12;13.60;99.90
12578;DHT22;6354;51.026;8.968;2022-09-09T04:59:46;13.60;99.90
12578;DHT22;6354;51.026;8.968;2022-09-09T05:02:14;13.60;99.90
12578;DHT22;6354;51.026;8.968;2022-09-09T05:04:42;13.60;99.90
12578;DHT22;6354;51.026;8.968;2022-09-09T05:07:10;13.70;99.90
12578;DHT22;6354;51.026;8.968;2022-09-09T05:09:40;13.70;99.90
12578;DHT22;6354;51.026;8.968;2022-09-09T05:12:08;13.70;99.90
12578;DHT22;6354;51.026;8.968;2022-09-09T05:14:36;13.80;99.90
12578;DHT22;6354;51.026;8.968;2022-09-09T05:17:05;13.80;99.90
12578;DHT22;6354;51.026;8.968;2022-09-09T05:19:33;13.90;99.90
12578;DHT22;6354;51.026;8.968;2022-09-09T05:22:01;13.90;99.90
12578;DHT22;6354;51.026;8.968;2022-09-09T05:24:31;14.00;99.90
12578;DHT22;6354;51.026;8.968;2022-09-09T05:27:00;14.10;99.90
12578;DHT22;6354;51.026;8.968;2022-09-09T05:29:29;14.20;99.90
12578;DHT22;6354;51.026;8.968;2022-09-09T05:32:00;14.30;99.90
12578;DHT22;6354;51.026;8.968;2022-09-09T05:34:30;14.30;99.90
12578;DHT22;6354;51.026;8.968;2022-09-09T05:36:58;14.30;99.90
12578;DHT22;6354;51.026;8.968;2022-09-09T05:39:26;14.40;99.90
12578;DHT22;6354;51.026;8.968;2022-09-09T05:41:54;14.50;99.90
12578;DHT22;6354;51.026;8.968;2022-09-09T05:44:22;14.70;99.90
12578;DHT22;6354;51.026;8.968;2022-09-09T05:46:54;14.70;99.90
12578;DHT22;6354;51.026;8.968;2022-09-09T05:49:22;14.80;99.90
12578;DHT22;6354;51.026;8.968;2022-09-09T05:51:52;15.00;99.90
12578;DHT22;6354;51.026;8.968;2022-09-09T05:54:20;15.10;99.90
12578;DHT22;6354;51.026;8.968;2022-09-09T05:56:48;15.20;99.90
12578;DHT22;6354;51.026;8.968;2022-09-09T05:59:17;15.30;99.90
12578;DHT22;6354;51.026;8.968;2022-09-09T06:01:45;15.40;99.90
12578;DHT22;6354;51.026;8.968;2022-09-09T06:04:14;15.40;99.90
12578;DHT22;6354;51.026;8.968;2022-09-09T06:06:42;15.40;99.90
12578;DHT22;6354;51.026;8.968;2022-09-09T06:09:12;15.40;99.90
12578;DHT22;6354;51.026;8.968;2022-09-09T06:11:40;15.40;99.90
12578;DHT22;6354;51.026;8.968;2022-09-09T06:14:09;15.40;99.90
12578;DHT22;6354;51.026;8.968;2022-09-09T06:16:37;15.40;99.90
12578;DHT22;6354;51.026;8.968;2022-09-09T06:19:05;15.40;99.90
12578;DHT22;6354;51.026;8.968;2022-09-09T06:21:35;15.40;99.90
12578;DHT22;6354;51.026;8.968;2022-09-09T06:24:04;15.40;99.90
12578;DHT22;6354;51.026;8.968;2022-09-09T06:26:36;15.40;99.90
12578;DHT22;6354;51.026;8.968;2022-09-09T06:29:08;15.40;99.90
12578;DHT22;6354;51.026;8.968;2022-09-09T06:31:36;15.40;99.90
12578;DHT22;6354;51.026;8.968;2022-09-09T06:34:06;15.30;99.90
12578;DHT22;6354;51.026;8.968;2022-09-09T06:36:36;15.40;99.90
12578;DHT22;6354;51.026;8.968;2022-09-09T06:39:05;15.30;99.90
12578;DHT22;6354;51.026;8.968;2022-09-09T06:41:41;15.30;99.90
12578;DHT22;6354;51.026;8.968;2022-09-09T06:44:10;15.30;99.90
12578;DHT22;6354;51.026;8.968;2022-09-09T06:46:39;15.40;99.90
12578;DHT22;6354;51.026;8.968;2022-09-09T06:49:08;15.30;99.90
12578;DHT22;6354;51.026;8.968;2022-09-09T06:51:37;15.40;99.90
12578;DHT22;6354;51.026;8.968;2022-09-09T06:54:10;15.60;99.90
12578;DHT22;6354;51.026;8.968;2022-09-09T06:56:41;15.70;99.90
12578;DHT22;6354;51.026;8.968;2022-09-09T06:59:10;15.80;99.90
12578;DHT22;6354;51.026;8.968;2022-09-09T07:01:40;16.00;99.90
12578;DHT22;6354;51.026;8.968;2022-09-09T07:04:09;16.00;99.90
12578;DHT22;6354;51.026;8.968;2022-09-09T07:06:39;15.90;99.90
12578;DHT22;6354;51.026;8.968;2022-09-09T07:09:09;15.90;99.90
12578;DHT22;6354;51.026;8.968;2022-09-09T07:11:39;15.90;99.90
12578;DHT22;6354;51.026;8.968;2022-09-09T07:14:09;15.90;99.90
12578;DHT22;6354;51.026;8.968;2022-09-09T07:16:39;15.90;99.90
12578;DHT22;6354;51.026;8.968;2022-09-09T07:19:08;16.00;99.90
12578;DHT22;6354;51.026;8.968;2022-09-09T07:21:36;16.10;99.90
12578;DHT22;6354;51.026;8.968;2022-09-09T07:24:04;16.10;99.90
12578;DHT22;6354;51.026;8.968;2022-09-09T07:26:34;16.10;99.90
12578;DHT22;6354;51.026;8.968;2022-09-09T07:29:02;16.20;99.90
12578;DHT22;6354;51.026;8.968;2022-09-09T07:31:33;16.20;99.90
12578;DHT22;6354;51.026;8.968;2022-09-09T07:34:04;16.20;99.90
12578;DHT22;6354;51.026;8.968;2022-09-09T07:36:34;16.20;99.90
12578;DHT22;6354;51.026;8.968;2022-09-09T07:39:05;16.80;99.90
12578;DHT22;6354;51.026;8.968;2022-09-09T07:41:35;17.30;99.90
12578;DHT22;6354;51.026;8.968;2022-09-09T07:44:05;17.70;99.90
12578;DHT22;6354;51.026;8.968;2022-09-09T07:46:36;18.00;99.90
12578;DHT22;6354;51.026;8.968;2022-09-09T07:49:06;18.30;99.90
12578;DHT22;6354;51.026;8.968;2022-09-09T07:51:36;18.40;99.90
12578;DHT22;6354;51.026;8.968;2022-09-09T07:54:05;18.30;99.90
12578;DHT22;6354;51.026;8.968;2022-09-09T07:56:34;18.20;99.90
12578;DHT22;6354;51.026;8.968;2022-09-09T07:59:06;18.20;99.90
12578;DHT22;6354;51.026;8.968;2022-09-09T08:01:39;18.20;99.90
12578;DHT22;6354;51.026;8.968;2022-09-09T08:04:09;18.10;99.90
12578;DHT22;6354;51.026;8.968;2022-09-09T08:06:40;18.10;99.90
12578;DHT22;6354;51.026;8.968;2022-09-09T08:09:09;18.20;99.90
12578;DHT22;6354;51.026;8.968;2022-09-09T08:11:38;18.20;99.90
12578;DHT22;6354;51.026;8.968;2022-09-09T08:14:07;18.10;99.90
12578;DHT22;6354;51.026;8.968;2022-09-09T08:16:39;18.40;99.90
12578;DHT22;6354;51.026;8.968;2022-09-09T08:19:08;18.60;99.90
12578;DHT22;6354;51.026;8.968;2022-09-09T08:21:38;18.60;99.90
12578;DHT22;6354;51.026;8.968;2022-09-09T08:24:08;18.60;99.90
12578;DHT22;6354;51.026;8.968;2022-09-09T08:26:39;18.50;99.90
12578;DHT22;6354;51.026;8.968;2022-09-09T08:29:09;18.50;99.90
12578;DHT22;6354;51.026;8.968;2022-09-09T08:31:42;18.60;99.90
12578;DHT22;6354;51.026;8.968;2022-09-09T08:34:11;18.60;99.90
12578;DHT22;6354;51.026;8.968;2022-09-09T08:36:40;18.60;99.90
12578;DHT22;6354;51.026;8.968;2022-09-09T08:39:11;18.60;99.90
12578;DHT22;6354;51.026;8.968;2022-09-09T08:41:57;18.60;99.90
12578;DHT22;6354;51.026;8.968;2022-09-09T08:44:37;18.70;99.90
12578;DHT22;6354;51.026;8.968;2022-09-09T08:47:22;19.00;99.90
12578;DHT22;6354;51.026;8.968;2022-09-09T08:50:08;19.20;99.90
12578;DHT22;6354;51.026;8.968;2022-09-09T08:52:49;19.30;99.90
12578;DHT22;6354;51.026;8.968;2022-09-09T08:55:24;19.40;99.90
12578;DHT22;6354;51.026;8.968;2022-09-09T08:57:55;19.60;99.90
12578;DHT22;6354;51.026;8.968;2022-09-09T09:00:30;19.80;99.90
12578;DHT22;6354;51.026;8.968;2022-09-09T09:03:08;20.10;99.90
12578;DHT22;6354;51.026;8.968;2022-09-09T09:05:45;20.20;99.90
12578;DHT22;6354;51.026;8.968;2022-09-09T09:08:20;20.20;99.90
12578;DHT22;6354;51.026;8.968;2022-09-09T09:10:55;20.30;99.90
12578;DHT22;6354;51.026;8.968;2022-09-09T09:13:32;20.40;99.90
12578;DHT22;6354;51.026;8.968;2022-09-09T09:16:17;20.50;99.90
12578;DHT22;6354;51.026;8.968;2022-09-09T09:18:48;20.20;99.90
12578;DHT22;6354;51.026;8.968;2022-09-09T09:21:21;20.30;99.90
12578;DHT22;6354;51.026;8.968;2022-09-09T09:23:56;20.30;99.90
12578;DHT22;6354;51.026;8.968;2022-09-09T09:26:30;20.20;99.90
12578;DHT22;6354;51.026;8.968;2022-09-09T09:29:03;20.00;99.90
12578;DHT22;6354;51.026;8.968;2022-09-09T09:31:36;19.80;99.90
12578;DHT22;6354;51.026;8.968;2022-09-09T09:34:07;19.50;99.90
12578;DHT22;6354;51.026;8.968;2022-09-09T09:36:41;19.30;99.90
12578;DHT22;6354;51.026;8.968;2022-09-09T09:39:23;19.30;99.90
12578;DHT22;6354;51.026;8.968;2022-09-09T09:42:13;19.20;99.90
12578;DHT22;6354;51.026;8.968;2022-09-09T09:44:48;19.00;99.90
12578;DHT22;6354;51.026;8.968;2022-09-09T09:47:18;18.90;99.90
12578;DHT22;6354;51.026;8.968;2022-09-09T09:49:55;18.90;99.90
12578;DHT22;6354;51.026;8.968;2022-09-09T09:52:26;19.20;99.90
12578;DHT22;6354;51.026;8.968;2022-09-09T09:54:57;19.50;99.90
12578;DHT22;6354;51.026;8.968;2022-09-09T09:57:33;19.60;99.90
12578;DHT22;6354;51.026;8.968;2022-09-09T10:00:04;19.60;99.90
12578;DHT22;6354;51.026;8.968;2022-09-09T10:02:42;19.70;99.90
12578;DHT22;6354;51.026;8.968;2022-09-09T10:05:16;19.60;99.90
12578;DHT22;6354;51.026;8.968;2022-09-09T10:08:03;19.60;99.90
12578;DHT22;6354;51.026;8.968;2022-09-09T10:10:42;19.60;99.90
12578;DHT22;6354;51.026;8.968;2022-09-09T10:13:19;19.70;99.90
12578;DHT22;6354;51.026;8.968;2022-09-09T10:15:59;19.70;99.90
12578;DHT22;6354;51.026;8.968;2022-09-09T10:18:39;19.90;99.90
12578;DHT22;6354;51.026;8.968;2022-09-09T10:21:21;20.00;99.90
12578;DHT22;6354;51.026;8.968;2022-09-09T10:24:07;20.20;99.90
12578;DHT22;6354;51.026;8.968;2022-09-09T10:26:46;20.30;99.90
12578;DHT22;6354;51.026;8.968;2022-09-09T10:29:26;20.20;99.90
12578;DHT22;6354;51.026;8.968;2022-09-09T10:32:06;20.30;99.90
12578;DHT22;6354;51.026;8.968;2022-09-09T10:34:53;20.40;99.90
12578;DHT22;6354;51.026;8.968;2022-09-09T10:37:37;20.30;99.90
12578;DHT22;6354;51.026;8.968;2022-09-09T10:40:25;20.00;99.90
12578;DHT22;6354;51.026;8.968;2022-09-09T10:43:03;19.70;99.90
12578;DHT22;6354;51.026;8.968;2022-09-09T10:45:40;19.60;99.90
12578;DHT22;6354;51.026;8.968;2022-09-09T10:48:39;19.30;99.90
12578;DHT22;6354;51.026;8.968;2022-09-09T10:51:21;19.00;99.90
12578;DHT22;6354;51.026;8.968;2022-09-09T10:54:08;18.90;99.90
12578;DHT22;6354;51.026;8.968;2022-09-09T10:56:42;19.00;99.90
12578;DHT22;6354;51.026;8.968;2022-09-09T10:59:16;19.30;99.90
12578;DHT22;6354;51.026;8.968;2022-09-09T11:01:51;19.60;99.90
12578;DHT22;6354;51.026;8.968;2022-09-09T11:04:22;20.00;99.90
12578;DHT22;6354;51.026;8.968;2022-09-09T11:06:54;20.30;99.90
12578;DHT22;6354;51.026;8.968;2022-09-09T11:09:28;20.50;99.90
12578;DHT22;6354;51.026;8.968;2022-09-09T11:11:59;20.50;99.90
12578;DHT22;6354;51.026;8.968;2022-09-09T11:14:33;20.40;99.90
12578;DHT22;6354;51.026;8.968;2022-09-09T11:17:06;20.30;99.90
12578;DHT22;6354;51.026;8.968;2022-09-09T11:19:39;20.10;99.90
12578;DHT22;6354;51.026;8.968;2022-09-09T11:22:15;20.00;99.90
12578;DHT22;6354;51.026;8.968;2022-09-09T11:24:50;19.60;99.90
12578;DHT22;6354;51.026;8.968;2022-09-09T11:27:23;19.30;99.90
12578;DHT22;6354;51.026;8.968;2022-09-09T11:30:14;19.10;99.90
12578;DHT22;6354;51.026;8.968;2022-09-09T11:33:24;19.10;99.90
12578;DHT22;6354;51.026;8.968;2022-09-09T11:36:13;19.00;99.90
12578;DHT22;6354;51.026;8.968;2022-09-09T11:38:45;18.80;99.90
12578;DHT22;6354;51.026;8.968;2022-09-09T11:41:15;18.60;99.90
12578;DHT22;6354;51.026;8.968;2022-09-09T11:43:48;18.50;99.90
12578;DHT22;6354;51.026;8.968;2022-09-09T11:46:19;18.50;99.90
12578;DHT22;6354;51.026;8.968;2022-09-09T11:48:59;18.50;99.90
12578;DHT22;6354;51.026;8.968;2022-09-09T11:51:29;18.50;99.90
12578;DHT22;6354;51.026;8.968;2022-09-09T11:53:59;18.70;99.90
12578;DHT22;6354;51.026;8.968;2022-09-09T11:56:30;19.00;99.90
12578;DHT22;6354;51.026;8.968;2022-09-09T11:59:02;19.20;99.90
12578;DHT22;6354;51.026;8.968;2022-09-09T12:01:35;19.10;99.90
12578;DHT22;6354;51.026;8.968;2022-09-09T12:04:17;19.20;99.90
12578;DHT22;6354;51.026;8.968;2022-09-09T12:06:51;19.30;99.90
12578;DHT22;6354;51.026;8.968;2022-09-09T12:09:25;19.50;99.90
12578;DHT22;6354;51.026;8.968;2022-09-09T12:12:07;19.70;99.90
12578;DHT22;6354;51.026;8.968;2022-09-09T12:14:37;19.80;99.90
12578;DHT22;6354;51.026;8.968;2022-09-09T12:17:19;19.80;99.90
12578;DHT22;6354;51.026;8.968;2022-09-09T12:19:48;20.00;99.90
12578;DHT22;6354;51.026;8.968;2022-09-09T12:22:24;20.10;99.90
12578;DHT22;6354;51.026;8.968;2022-09-09T12:25:00;20.00;99.90
12578;DHT22;6354;51.026;8.968;2022-09-09T12:27:40;20.00;99.90
12578;DHT22;6354;51.026;8.968;2022-09-09T12:30:14;19.90;99.90
12578;DHT22;6354;51.026;8.968;2022-09-09T12:32:42;19.90;99.90
12578;DHT22;6354;51.026;8.968;2022-09-09T12:35:14;19.80;99.90
12578;DHT22;6354;51.026;8.968;2022-09-09T12:37:46;19.80;99.90
12578;DHT22;6354;51.026;8.968;2022-09-09T12:40:21;19.90;99.90
12578;DHT22;6354;51.026;8.968;2022-09-09T12:42:51;19.80;99.90
12578;DHT22;6354;51.026;8.968;2022-09-09T12:45:22;20.00;99.90
12578;DHT22;6354;51.026;8.968;2022-09-09T12:47:53;20.20;99.90
12578;DHT22;6354;51.026;8.968;2022-09-09T12:50:24;20.40;99.90
12578;DHT22;6354;51.026;8.968;2022-09-09T12:52:55;20.50;99.90
12578;DHT22;6354;51.026;8.968;2022-09-09T12:55:28;20.30;99.90
12578;DHT22;6354;51.026;8.968;2022-09-09T12:57:58;20.30;99.90
12578;DHT22;6354;51.026;8.968;2022-09-09T13:00:27;20.20;99.90
12578;DHT22;6354;51.026;8.968;2022-09-09T13:02:58;20.20;99.90
12578;DHT22;6354;51.026;8.968;2022-09-09T13:05:31;20.30;99.90
12578;DHT22;6354;51.026;8.968;2022-09-09T13:08:02;20.00;99.90
12578;DHT22;6354;51.026;8.968;2022-09-09T13:10:34;20.00;99.90
12578;DHT22;6354;51.026;8.968;2022-09-09T13:13:22;20.00;99.90
12578;DHT22;6354;51.026;8.968;2022-09-09T13:15:52;20.00;99.90
12578;DHT22;6354;51.026;8.968;2022-09-09T13:18:23;20.20;99.90
12578;DHT22;6354;51.026;8.968;2022-09-09T13:20:51;20.40;99.90
12578;DHT22;6354;51.026;8.968;2022-09-09T13:23:20;20.60;99.90
12578;DHT22;6354;51.026;8.968;2022-09-09T13:25:53;20.80;99.90
12578;DHT22;6354;51.026;8.968;2022-09-09T13:28:25;21.10;99.90
12578;DHT22;6354;51.026;8.968;2022-09-09T13:31:00;21.20;99.90
12578;DHT22;6354;51.026;8.968;2022-09-09T13:33:31;21.20;99.90
12578;DHT22;6354;51.026;8.968;2022-09-09T13:36:02;21.00;99.90
12578;DHT22;6354;51.026;8.968;2022-09-09T13:38:33;20.90;99.90
12578;DHT22;6354;51.026;8.968;2022-09-09T13:41:05;20.90;99.90
12578;DHT22;6354;51.026;8.968;2022-09-09T13:43:37;20.90;99.90
12578;DHT22;6354;51.026;8.968;2022-09-09T13:46:24;20.80;99.90
12578;DHT22;6354;51.026;8.968;2022-09-09T13:48:56;20.70;99.90
12578;DHT22;6354;51.026;8.968;2022-09-09T13:51:35;20.70;99.90
12578;DHT22;6354;51.026;8.968;2022-09-09T13:54:04;20.70;99.90
12578;DHT22;6354;51.026;8.968;2022-09-09T13:56:34;20.80;99.90
12578;DHT22;6354;51.026;8.968;2022-09-09T13:59:05;20.70;99.90
12578;DHT22;6354;51.026;8.968;2022-09-09T14:01:33;20.70;99.90
12578;DHT22;6354;51.026;8.968;2022-09-09T14:04:02;20.60;99.90
12578;DHT22;6354;51.026;8.968;2022-09-09T14:06:30;20.60;99.90
12578;DHT22;6354;51.026;8.968;2022-09-09T14:08:58;20.60;99.90
12578;DHT22;6354;51.026;8.968;2022-09-09T14:11:26;20.50;99.90
12578;DHT22;6354;51.026;8.968;2022-09-09T14:13:54;20.60;99.90
12578;DHT22;6354;51.026;8.968;2022-09-09T14:16:24;20.60;99.90
12578;DHT22;6354;51.026;8.968;2022-09-09T14:18:54;20.60;99.90
12578;DHT22;6354;51.026;8.968;2022-09-09T14:21:23;20.50;99.90
12578;DHT22;6354;51.026;8.968;2022-09-09T14:23:51;20.70;99.90
12578;DHT22;6354;51.026;8.968;2022-09-09T14:26:20;20.70;99.90
12578;DHT22;6354;51.026;8.968;2022-09-09T14:28:48;20.70;99.90
12578;DHT22;6354;51.026;8.968;2022-09-09T14:31:21;20.80;99.90
12578;DHT22;6354;51.026;8.968;2022-09-09T14:33:51;20.80;99.90
12578;DHT22;6354;51.026;8.968;2022-09-09T14:36:20;20.80;99.90
12578;DHT22;6354;51.026;8.968;2022-09-09T14:38:48;21.00;99.90
12578;DHT22;6354;51.026;8.968;2022-09-09T14:41:18;21.10;99.90
12578;DHT22;6354;51.026;8.968;2022-09-09T14:43:46;21.00;99.90
12578;DHT22;6354;51.026;8.968;2022-09-09T14:46:16;20.80;99.90
12578;DHT22;6354;51.026;8.968;2022-09-09T14:48:44;20.70;99.90
12578;DHT22;6354;51.026;8.968;2022-09-09T14:51:18;20.60;99.90
12578;DHT22;6354;51.026;8.968;2022-09-09T14:53:51;20.40;99.90
12578;DHT22;6354;51.026;8.968;2022-09-09T14:56:22;20.30;99.90
12578;DHT22;6354;51.026;8.968;2022-09-09T14:58:52;20.20;99.90
12578;DHT22;6354;51.026;8.968;2022-09-09T15:01:21;20.20;99.90
12578;DHT22;6354;51.026;8.968;2022-09-09T15:03:51;20.20;99.90
12578;DHT22;6354;51.026;8.968;2022-09-09T15:06:22;20.10;99.90
12578;DHT22;6354;51.026;8.968;2022-09-09T15:08:52;20.00;99.90
12578;DHT22;6354;51.026;8.968;2022-09-09T15:11:21;20.00;99.90
12578;DHT22;6354;51.026;8.968;2022-09-09T15:13:51;20.00;99.90
12578;DHT22;6354;51.026;8.968;2022-09-09T15:16:23;19.90;99.90
12578;DHT22;6354;51.026;8.968;2022-09-09T15:18:54;19.80;99.90
12578;DHT22;6354;51.026;8.968;2022-09-09T15:21:27;19.90;99.90
12578;DHT22;6354;51.026;8.968;2022-09-09T15:23:55;19.90;99.90
12578;DHT22;6354;51.026;8.968;2022-09-09T15:26:24;19.80;99.90
12578;DHT22;6354;51.026;8.968;2022-09-09T15:28:52;19.80;99.90
12578;DHT22;6354;51.026;8.968;2022-09-09T15:31:22;19.80;99.90
12578;DHT22;6354;51.026;8.968;2022-09-09T15:33:52;19.70;99.90
12578;DHT22;6354;51.026;8.968;2022-09-09T15:36:22;19.70;99.90
12578;DHT22;6354;51.026;8.968;2022-09-09T15:38:52;19.70;99.90
12578;DHT22;6354;51.026;8.968;2022-09-09T15:41:21;19.80;99.90
12578;DHT22;6354;51.026;8.968;2022-09-09T15:43:51;19.70;99.90
12578;DHT22;6354;51.026;8.968;2022-09-09T15:46:25;19.70;99.90
12578;DHT22;6354;51.026;8.968;2022-09-09T15:48:55;19.70;99.90
12578;DHT22;6354;51.026;8.968;2022-09-09T15:51:24;19.70;99.90
12578;DHT22;6354;51.026;8.968;2022-09-09T15:54:12;19.70;99.90
12578;DHT22;6354;51.026;8.968;2022-09-09T15:56:41;19.70;99.90
12578;DHT22;6354;51.026;8.968;2022-09-09T15:59:09;19.60;99.90
12578;DHT22;6354;51.026;8.968;2022-09-09T16:01:38;19.50;99.90
12578;DHT22;6354;51.026;8.968;2022-09-09T16:04:07;19.40;99.90
12578;DHT22;6354;51.026;8.968;2022-09-09T16:06:35;19.40;99.90
12578;DHT22;6354;51.026;8.968;2022-09-09T16:09:05;19.30;99.90
12578;DHT22;6354;51.026;8.968;2022-09-09T16:11:37;19.30;99.90
12578;DHT22;6354;51.026;8.968;2022-09-09T16:14:06;19.30;99.90
12578;DHT22;6354;51.026;8.968;2022-09-09T16:16:34;19.20;99.90
12578;DHT22;6354;51.026;8.968;2022-09-09T16:19:04;19.10;99.90